Langdon, KS (67583)

11:53 AM CDT on September 02, 2014 (GMT -0500)
Pratt Industrial | Change Station
CLOSE
Current Station
Airport
Location: Pratt,
Elevation: 1952 ft
Nearby Weather Stations

Elev 1952 ft 37.70 °N, 98.75 °W | Updated 18 minutes ago

Overcast
Overcast
72 °F
Feels Like 72 °F
N
10
Wind Variable Wind from ESE

Today
High -- | Low -- °F
--% Chance of Precip.
Yesterday
High -- | Low -- °F
Precip. -- in
7:04 AM 8:01 PM
First Quarter, 53% visible
Pressure 30.04 in
Visibility 10.0 miles
Clouds Overcast 700 ft
Dew Point 66 °F
Humidity 83%
Rainfall 0.00 in
Snow Depth Not available.
UV 2 out of 12
Pollen 10.30 out of 12
Air Quality Not available.
Flu Activity Not available.
METAR KPTT 021635Z AUTO 12009KT 10SM OVC007 22/19 A3004 RMK AO2

More Conditions Fewer Conditions

Pressure 30.04 in
Visibility 10.0 miles
Clouds Overcast 700 ft
Dew Point 66 °F
Humidity 83%
Rainfall 0.00 in
Snow Depth Not available.
UV 2 out of 12
Pollen 10.30 out of 12
Air Quality Not available.
Flu Activity Not available.
METAR KPTT 021635Z AUTO 12009KT 10SM OVC007 22/19 A3004 RMK AO2

More Conditions Fewer Conditions

10-Day Weather Forecast

Almanac

Astronomy

Sep. 02, 2014 Rise Set
Actual Time 7:04 AM CDT 8:01 PM CDT
Civil Twilight 6:37 AM CDT 8:28 PM CDT
Nautical Twilight 6:05 AM CDT 8:59 PM CDT
Astronomical Twilight 5:32 AM CDT 9:32 PM CDT
Moon 2:42 PM CDT 12:12 AM CDT
Length of Visible Light 13h 50m
Length of Day
12h 56m
Tomorrow will be 2m 20s shorter.
First Quarter, 53% of the Moon is Illuminated
Today
First Quarter
Sep 8
Full
Sep 15
Last Quarter
Sep 24
New
Oct 1
First Quarter

Today's Extremes

State Highs State Lows

Community

WunderPhotos

Upload Photos

1,749,716 photos uploaded!

WunderBlogs® & News

Nearby

Snow Depth

Station Depth Elevation
No new snow has been reported.

Earthquake Activity

City Distance Mag. Time & Date
Helena, Oklahoma 91 miles 3.2 3:05 AM CDT
2014-09-02
Medford, Oklahoma 80 miles 3.3 11:58 PM CDT
2014-09-01
Perry, Oklahoma 124 miles 3.1 6:46 AM CDT
2014-09-01
Enid, Oklahoma 87 miles 3.4 11:57 AM CDT
2014-08-31
Minimum magnitude displayed is 2.5.

Coastal Water Temperatures

Place Temperature
No Stations Reporting

Nearby Weather Stations